createdAt,value
2022-10-07T00:00:21.047Z,20.74
2022-10-07T00:01:21.133Z,20.72
2022-10-07T00:02:21.068Z,20.72
2022-10-07T00:03:21.019Z,20.72
2022-10-07T00:04:21.006Z,20.72
2022-10-07T00:05:20.990Z,20.72
2022-10-07T00:06:21.008Z,20.70
2022-10-07T00:07:20.972Z,20.70
2022-10-07T00:08:20.957Z,20.72
2022-10-07T00:09:20.947Z,20.70
2022-10-07T00:10:20.936Z,20.70
2022-10-07T00:11:20.951Z,20.70
2022-10-07T00:12:20.918Z,20.70
2022-10-07T00:13:20.925Z,20.72
2022-10-07T00:14:20.894Z,20.70
2022-10-07T00:15:20.883Z,20.72
2022-10-07T00:16:20.993Z,20.70
2022-10-07T00:17:20.859Z,20.70
2022-10-07T00:18:20.848Z,20.70
2022-10-07T00:19:20.834Z,20.70
2022-10-07T00:20:20.826Z,20.69
2022-10-07T00:21:20.818Z,20.69
2022-10-07T00:22:20.827Z,20.70
2022-10-07T00:23:20.795Z,20.69
2022-10-07T00:24:20.780Z,20.70
2022-10-07T00:25:20.772Z,20.70
2022-10-07T00:26:20.760Z,20.70
2022-10-07T00:27:20.770Z,20.69
2022-10-07T00:28:20.803Z,20.70
2022-10-07T00:29:20.747Z,20.70
2022-10-07T00:30:20.721Z,20.70
2022-10-07T00:31:20.791Z,20.69
2022-10-07T00:32:20.715Z,20.69
2022-10-07T00:33:20.686Z,20.69
2022-10-07T00:34:20.675Z,20.69
2022-10-07T00:35:20.663Z,20.69
2022-10-07T00:36:20.678Z,20.70
2022-10-07T00:37:20.667Z,20.69
2022-10-07T00:38:20.623Z,20.69
2022-10-07T00:39:20.615Z,20.69
2022-10-07T00:40:20.601Z,20.67
2022-10-07T00:41:20.609Z,20.69
2022-10-07T00:42:20.607Z,20.70
2022-10-07T00:43:20.576Z,20.70
2022-10-07T00:44:20.559Z,20.69
2022-10-07T00:45:20.630Z,20.67
2022-10-07T00:46:20.607Z,20.69
2022-10-07T00:47:20.561Z,20.69
2022-10-07T00:48:20.511Z,20.67
2022-10-07T00:49:20.500Z,20.66
2022-10-07T00:50:20.493Z,20.67
2022-10-07T00:51:20.480Z,20.69
2022-10-07T00:52:20.481Z,20.67
2022-10-07T00:53:20.479Z,20.67
2022-10-07T00:54:20.447Z,20.67
2022-10-07T00:55:20.436Z,20.69
2022-10-07T00:56:20.424Z,20.67
2022-10-07T00:57:20.413Z,20.67
2022-10-07T00:58:20.427Z,20.66
2022-10-07T00:59:20.389Z,20.67
2022-10-07T01:00:20.382Z,20.66
2022-10-07T01:01:20.452Z,20.66
2022-10-07T01:02:20.508Z,20.67
2022-10-07T01:03:20.370Z,20.67
2022-10-07T01:04:20.333Z,20.66
2022-10-07T01:05:20.322Z,20.67
2022-10-07T01:06:20.339Z,20.67
2022-10-07T01:07:20.301Z,20.67
2022-10-07T01:08:20.294Z,20.67
2022-10-07T01:09:20.278Z,20.66
2022-10-07T01:10:20.434Z,20.67
2022-10-07T01:11:20.283Z,20.66
2022-10-07T01:12:20.247Z,20.67
2022-10-07T01:13:20.234Z,20.66
2022-10-07T01:14:20.224Z,20.65
2022-10-07T01:15:20.211Z,20.66
2022-10-07T01:16:20.268Z,20.65
2022-10-07T01:17:20.215Z,20.66
2022-10-07T01:18:20.186Z,20.67
2022-10-07T01:19:20.167Z,20.66
2022-10-07T01:20:20.160Z,20.65
2022-10-07T01:21:20.191Z,20.66
2022-10-07T01:22:20.136Z,20.66
2022-10-07T01:23:20.123Z,20.65
2022-10-07T01:24:20.115Z,20.65
2022-10-07T01:25:20.102Z,20.66
2022-10-07T01:26:20.093Z,20.66
2022-10-07T01:27:20.128Z,20.66
2022-10-07T01:28:20.174Z,20.65
2022-10-07T01:29:20.057Z,20.65
2022-10-07T01:30:20.049Z,20.65
2022-10-07T01:31:20.067Z,20.65
2022-10-07T01:32:20.025Z,20.63
2022-10-07T01:33:20.061Z,20.65
2022-10-07T01:34:20.002Z,20.65
2022-10-07T01:35:19.990Z,20.65
2022-10-07T01:36:19.980Z,20.65
2022-10-07T01:37:19.968Z,20.63
2022-10-07T01:38:19.984Z,20.65
2022-10-07T01:39:19.946Z,20.65
2022-10-07T01:40:19.935Z,20.65
2022-10-07T01:41:19.924Z,20.63
2022-10-07T01:42:19.918Z,20.65
2022-10-07T01:43:19.930Z,20.65
2022-10-07T01:44:19.894Z,20.63
2022-10-07T01:45:19.879Z,20.65
2022-10-07T01:46:20.046Z,20.65
2022-10-07T01:47:19.857Z,20.63
2022-10-07T01:48:19.876Z,20.63
2022-10-07T01:49:20.100Z,20.65
2022-10-07T01:50:19.827Z,20.65
2022-10-07T01:51:19.814Z,20.65
2022-10-07T01:52:19.805Z,20.65
2022-10-07T01:53:19.818Z,20.63
2022-10-07T01:54:19.782Z,20.65
2022-10-07T01:55:19.768Z,20.63
2022-10-07T01:56:19.762Z,20.65
2022-10-07T01:57:19.754Z,20.63
2022-10-07T01:58:19.737Z,20.63
2022-10-07T01:59:19.752Z,20.63
2022-10-07T02:00:19.714Z,20.63
2022-10-07T02:01:19.851Z,20.65
2022-10-07T02:02:19.696Z,20.65
2022-10-07T02:03:19.705Z,20.65
2022-10-07T02:04:19.695Z,20.63
2022-10-07T02:05:19.684Z,20.62
2022-10-07T02:06:19.647Z,20.62
2022-10-07T02:07:19.640Z,20.63
2022-10-07T02:08:19.627Z,20.62
2022-10-07T02:09:19.640Z,20.62
2022-10-07T02:10:19.629Z,20.63
2022-10-07T02:11:19.595Z,20.63
2022-10-07T02:12:19.587Z,20.63
2022-10-07T02:13:19.573Z,20.62
2022-10-07T02:14:19.559Z,20.62
2022-10-07T02:15:19.577Z,20.63
2022-10-07T02:16:19.617Z,20.63
2022-10-07T02:17:19.530Z,20.63
2022-10-07T02:18:19.515Z,20.63
2022-10-07T02:19:19.507Z,20.63
2022-10-07T02:20:19.539Z,20.62
2022-10-07T02:21:19.511Z,20.62
2022-10-07T02:22:19.472Z,20.63
2022-10-07T02:23:19.464Z,20.62
2022-10-07T02:24:19.450Z,20.62
2022-10-07T02:25:19.448Z,20.63
2022-10-07T02:26:19.454Z,20.62
2022-10-07T02:27:19.422Z,20.62
2022-10-07T02:28:19.474Z,20.63
2022-10-07T02:29:19.396Z,20.62
2022-10-07T02:30:19.387Z,20.62
2022-10-07T02:31:19.487Z,20.60
2022-10-07T02:32:19.362Z,20.60
2022-10-07T02:33:19.380Z,20.62
2022-10-07T02:34:20.344Z,20.60
2022-10-07T02:35:19.332Z,20.62
2022-10-07T02:36:19.322Z,20.60
2022-10-07T02:37:19.366Z,20.59
2022-10-07T02:38:19.324Z,20.60
2022-10-07T02:39:19.288Z,20.62
2022-10-07T02:40:19.275Z,20.60
2022-10-07T02:41:19.266Z,20.62
2022-10-07T02:42:19.252Z,20.60
2022-10-07T02:43:19.267Z,20.62
2022-10-07T02:44:19.254Z,20.60
2022-10-07T02:45:23.274Z,20.60
2022-10-07T02:46:20.316Z,20.60
2022-10-07T02:47:19.197Z,20.60
2022-10-07T02:48:19.186Z,20.60
2022-10-07T02:49:19.203Z,20.60
2022-10-07T02:50:19.189Z,20.60
2022-10-07T02:51:21.285Z,20.60
2022-10-07T02:52:19.142Z,20.59
2022-10-07T02:53:19.155Z,20.59
2022-10-07T02:54:19.119Z,20.60
2022-10-07T02:55:19.136Z,20.60
2022-10-07T02:56:19.099Z,20.60
2022-10-07T02:57:19.095Z,20.59
2022-10-07T02:58:19.075Z,20.60
2022-10-07T02:59:19.068Z,20.60
2022-10-07T03:00:19.079Z,20.59
2022-10-07T03:01:19.136Z,20.59
2022-10-07T03:02:19.032Z,20.59
2022-10-07T03:03:19.111Z,20.59
2022-10-07T03:04:19.009Z,20.60
2022-10-07T03:05:19.027Z,20.59
2022-10-07T03:06:18.985Z,20.60
2022-10-07T03:07:18.975Z,20.58
2022-10-07T03:08:18.963Z,20.59
2022-10-07T03:09:18.975Z,20.59
2022-10-07T03:10:18.969Z,20.60
2022-10-07T03:11:18.936Z,20.60
2022-10-07T03:12:18.923Z,20.60
2022-10-07T03:13:18.910Z,20.58
2022-10-07T03:14:18.899Z,20.59
2022-10-07T03:15:18.915Z,20.60
2022-10-07T03:16:18.961Z,20.59
2022-10-07T03:17:18.871Z,20.58
2022-10-07T03:18:18.861Z,20.59
2022-10-07T03:19:18.848Z,20.59
2022-10-07T03:20:18.863Z,20.59
2022-10-07T03:21:18.836Z,20.58
2022-10-07T03:22:18.835Z,20.59
2022-10-07T03:23:18.803Z,20.59
2022-10-07T03:24:18.789Z,20.59
2022-10-07T03:25:18.803Z,20.59
2022-10-07T03:26:18.770Z,20.58
2022-10-07T03:27:18.782Z,20.59
2022-10-07T03:28:18.828Z,20.60
2022-10-07T03:29:18.735Z,20.59
2022-10-07T03:30:23.530Z,20.58
2022-10-07T03:31:19.768Z,20.59
2022-10-07T03:32:18.700Z,20.59
2022-10-07T03:33:18.715Z,20.59
2022-10-07T03:34:18.680Z,20.58
2022-10-07T03:35:18.669Z,20.58
2022-10-07T03:36:18.655Z,20.58
2022-10-07T03:37:18.646Z,20.58
2022-10-07T03:38:18.665Z,20.58
2022-10-07T03:39:18.623Z,20.59
2022-10-07T03:40:18.615Z,20.56
2022-10-07T03:41:18.623Z,20.58
2022-10-07T03:42:18.592Z,20.58
2022-10-07T03:43:18.604Z,20.58
2022-10-07T03:44:18.568Z,20.58
2022-10-07T03:45:18.557Z,20.56
2022-10-07T03:46:18.583Z,20.58
2022-10-07T03:47:18.533Z,20.58
2022-10-07T03:48:18.549Z,20.58
2022-10-07T03:49:18.509Z,20.58
2022-10-07T03:50:18.505Z,20.58
2022-10-07T03:51:18.490Z,20.58
2022-10-07T03:52:18.482Z,20.56
2022-10-07T03:53:18.509Z,20.58
2022-10-07T03:54:18.459Z,20.56
2022-10-07T03:55:18.445Z,20.56
2022-10-07T03:56:18.434Z,20.56
2022-10-07T03:57:18.447Z,20.56
2022-10-07T03:58:18.416Z,20.58
2022-10-07T03:59:18.429Z,20.58
2022-10-07T04:00:18.394Z,20.56
2022-10-07T04:01:18.445Z,20.58
2022-10-07T04:02:18.370Z,20.58
2022-10-07T04:03:18.417Z,20.56
2022-10-07T04:04:18.378Z,20.56
2022-10-07T04:05:18.336Z,20.58
2022-10-07T04:06:18.329Z,20.56
2022-10-07T04:07:18.312Z,20.56
2022-10-07T04:08:18.306Z,20.58
2022-10-07T04:09:18.318Z,20.58
2022-10-07T04:10:18.288Z,20.56
2022-10-07T04:11:18.270Z,20.58
2022-10-07T04:12:18.261Z,20.56
2022-10-07T04:13:18.270Z,20.55
2022-10-07T04:14:18.263Z,20.56
2022-10-07T04:15:18.225Z,20.56
2022-10-07T04:16:18.370Z,20.56
2022-10-07T04:17:18.212Z,20.56
2022-10-07T04:18:18.192Z,20.56
2022-10-07T04:19:18.207Z,20.58
2022-10-07T04:20:18.173Z,20.55
2022-10-07T04:21:18.158Z,20.58
2022-10-07T04:22:18.150Z,20.56
2022-10-07T04:23:18.138Z,20.56
2022-10-07T04:24:18.154Z,20.56
2022-10-07T04:25:18.115Z,20.56
2022-10-07T04:26:18.107Z,20.58
2022-10-07T04:27:39.703Z,20.56
2022-10-07T04:28:19.133Z,20.55
2022-10-07T04:29:18.123Z,20.55
2022-10-07T04:30:18.082Z,20.56
2022-10-07T04:31:18.072Z,20.56
2022-10-07T04:32:18.040Z,20.56
2022-10-07T04:33:18.025Z,20.56
2022-10-07T04:34:18.054Z,20.56
2022-10-07T04:35:18.005Z,20.55
2022-10-07T04:36:17.995Z,20.56
2022-10-07T04:37:17.983Z,20.56
2022-10-07T04:38:17.971Z,20.55
2022-10-07T04:39:17.960Z,20.55
2022-10-07T04:40:17.975Z,20.56
2022-10-07T04:41:17.937Z,20.55
2022-10-07T04:42:17.929Z,20.55
2022-10-07T04:43:17.917Z,20.55
2022-10-07T04:44:17.907Z,20.58
2022-10-07T04:45:17.960Z,20.55
2022-10-07T04:46:17.916Z,20.55
2022-10-07T04:47:17.937Z,20.55
2022-10-07T04:48:17.890Z,20.56
2022-10-07T04:49:17.849Z,20.56
2022-10-07T04:50:17.838Z,20.55
2022-10-07T04:51:17.854Z,20.55
2022-10-07T04:52:17.815Z,20.55
2022-10-07T04:53:17.807Z,20.55
2022-10-07T04:54:17.797Z,20.52
2022-10-07T04:55:17.782Z,20.55
2022-10-07T04:56:17.798Z,20.55
2022-10-07T04:57:17.760Z,20.55
2022-10-07T04:58:17.749Z,20.55
2022-10-07T04:59:20.324Z,20.55
2022-10-07T05:00:17.727Z,20.55
2022-10-07T05:01:17.818Z,20.55
2022-10-07T05:02:17.813Z,20.55
2022-10-07T05:03:17.696Z,20.52
2022-10-07T05:04:17.685Z,20.52
2022-10-07T05:05:17.671Z,20.55
2022-10-07T05:06:17.689Z,20.55
2022-10-07T05:07:17.649Z,20.55
2022-10-07T05:08:17.638Z,20.55
2022-10-07T05:09:17.665Z,20.55
2022-10-07T05:10:17.618Z,20.55
2022-10-07T05:11:17.604Z,20.55
2022-10-07T05:12:17.597Z,20.55
2022-10-07T05:13:17.582Z,20.55
2022-10-07T05:14:17.576Z,20.55
2022-10-07T05:15:17.585Z,20.55
2022-10-07T05:16:17.617Z,20.55
2022-10-07T05:17:17.560Z,20.55
2022-10-07T05:18:17.529Z,20.55
2022-10-07T05:19:17.515Z,20.56
2022-10-07T05:20:17.532Z,20.55
2022-10-07T05:21:17.497Z,20.55
2022-10-07T05:22:17.483Z,20.55
2022-10-07T05:23:17.472Z,20.55
2022-10-07T05:24:17.462Z,20.52
2022-10-07T05:25:17.475Z,20.52
2022-10-07T05:26:17.442Z,20.52
2022-10-07T05:27:17.427Z,20.55
2022-10-07T05:28:17.436Z,20.52
2022-10-07T05:29:17.406Z,20.55
2022-10-07T05:30:17.434Z,20.55
2022-10-07T05:31:17.425Z,20.51
2022-10-07T05:32:17.378Z,20.52
2022-10-07T05:33:17.404Z,20.52
2022-10-07T05:34:17.352Z,20.55
2022-10-07T05:35:17.339Z,20.55
2022-10-07T05:36:17.353Z,20.55
2022-10-07T05:37:17.317Z,20.52
2022-10-07T05:38:17.311Z,20.56
2022-10-07T05:39:17.294Z,20.52
2022-10-07T05:40:17.508Z,20.56
2022-10-07T05:41:17.273Z,20.55
2022-10-07T05:42:17.262Z,20.55
2022-10-07T05:43:17.252Z,20.52
2022-10-07T05:44:17.246Z,20.55
2022-10-07T05:45:17.230Z,20.55
2022-10-07T05:46:17.314Z,20.52
2022-10-07T05:47:17.209Z,20.55
2022-10-07T05:48:17.201Z,20.55
2022-10-07T05:49:17.209Z,20.55
2022-10-07T05:50:17.175Z,20.52
2022-10-07T05:51:17.193Z,20.52
2022-10-07T05:52:17.156Z,20.55
2022-10-07T05:53:17.142Z,20.55
2022-10-07T05:54:17.133Z,20.52
2022-10-07T05:55:17.120Z,20.56
2022-10-07T05:56:17.138Z,20.52
2022-10-07T05:57:17.103Z,20.56
2022-10-07T05:58:17.091Z,20.55
2022-10-07T05:59:17.082Z,20.55
2022-10-07T06:00:17.065Z,20.56
2022-10-07T06:01:17.098Z,20.56
2022-10-07T06:02:17.193Z,20.55
2022-10-07T06:03:17.062Z,20.55
2022-10-07T06:04:17.025Z,20.55
2022-10-07T06:05:17.032Z,20.55
2022-10-07T06:06:17.042Z,20.55
2022-10-07T06:07:20.791Z,20.55
2022-10-07T06:08:17.978Z,20.55
2022-10-07T06:09:16.970Z,20.56
2022-10-07T06:10:16.957Z,20.56
2022-10-07T06:11:16.952Z,20.55
2022-10-07T06:12:16.960Z,20.52
2022-10-07T06:13:16.936Z,20.56
2022-10-07T06:14:16.912Z,20.55
2022-10-07T06:15:16.903Z,20.56
2022-10-07T06:16:17.001Z,20.56
2022-10-07T06:17:16.896Z,20.58
2022-10-07T06:18:16.868Z,20.55
2022-10-07T06:19:16.854Z,20.55
2022-10-07T06:20:16.846Z,20.56
2022-10-07T06:21:16.894Z,20.56
2022-10-07T06:22:16.822Z,20.56
2022-10-07T06:23:16.811Z,20.56
2022-10-07T06:24:16.810Z,20.56
2022-10-07T06:25:16.794Z,20.56
2022-10-07T06:26:16.784Z,20.58
2022-10-07T06:27:16.792Z,20.56
2022-10-07T06:28:16.830Z,20.58
2022-10-07T06:29:16.749Z,20.58
2022-10-07T06:30:16.735Z,20.56
2022-10-07T06:31:16.771Z,20.59
2022-10-07T06:32:16.741Z,20.58
2022-10-07T06:33:16.703Z,20.58
2022-10-07T06:34:16.690Z,20.59
2022-10-07T06:35:16.677Z,20.60
2022-10-07T06:36:16.667Z,20.58
2022-10-07T06:37:16.712Z,20.58
2022-10-07T06:38:16.647Z,20.59
2022-10-07T06:39:16.634Z,20.59
2022-10-07T06:40:16.629Z,20.59
2022-10-07T06:41:16.611Z,20.60
2022-10-07T06:42:16.629Z,20.59
2022-10-07T06:43:16.589Z,20.59
2022-10-07T06:44:16.580Z,20.60
2022-10-07T06:45:16.568Z,20.59
2022-10-07T06:46:16.681Z,20.60
2022-10-07T06:47:16.584Z,20.60
2022-10-07T06:48:16.538Z,20.60
2022-10-07T06:49:16.526Z,20.60
2022-10-07T06:50:16.520Z,20.60
2022-10-07T06:51:16.501Z,20.60
2022-10-07T06:52:16.491Z,20.62
2022-10-07T06:53:16.532Z,20.62
2022-10-07T06:54:16.468Z,20.63
2022-10-07T06:55:16.456Z,20.60
2022-10-07T06:56:16.451Z,20.62
2022-10-07T06:57:43.739Z,20.60
2022-10-07T06:58:17.455Z,20.62
2022-10-07T06:59:16.413Z,20.62
2022-10-07T07:00:16.403Z,20.62
2022-10-07T07:01:16.497Z,20.62
2022-10-07T07:02:16.457Z,20.62
2022-10-07T07:03:16.404Z,20.62
2022-10-07T07:04:16.364Z,20.63
2022-10-07T07:05:16.351Z,20.63
2022-10-07T07:06:16.342Z,20.63
2022-10-07T07:07:16.326Z,20.63
2022-10-07T07:08:16.343Z,20.65
2022-10-07T07:09:16.331Z,20.65
2022-10-07T07:10:16.298Z,20.65
2022-10-07T07:11:16.285Z,20.65
2022-10-07T07:12:16.274Z,20.63
2022-10-07T07:13:16.260Z,20.65
2022-10-07T07:14:16.277Z,20.66
2022-10-07T07:15:16.240Z,20.66
2022-10-07T07:16:16.281Z,20.65
2022-10-07T07:17:16.218Z,20.66
2022-10-07T07:18:16.206Z,20.66
2022-10-07T07:19:16.221Z,20.66
2022-10-07T07:20:16.186Z,20.65
2022-10-07T07:21:16.172Z,20.66
2022-10-07T07:22:16.164Z,20.66
2022-10-07T07:23:16.166Z,20.66
2022-10-07T07:24:16.169Z,20.67
2022-10-07T07:25:16.210Z,20.66
2022-10-07T07:26:16.119Z,20.66
2022-10-07T07:27:16.107Z,20.67
2022-10-07T07:28:16.256Z,20.67
2022-10-07T07:29:16.111Z,20.67
2022-10-07T07:30:16.077Z,20.67
2022-10-07T07:31:16.128Z,20.67
2022-10-07T07:32:16.056Z,20.67
2022-10-07T07:33:16.042Z,20.67
2022-10-07T07:34:16.059Z,20.69
2022-10-07T07:35:16.038Z,20.69
2022-10-07T07:36:16.018Z,20.69
2022-10-07T07:37:16.014Z,20.69
2022-10-07T07:38:15.991Z,20.70
2022-10-07T07:39:16.006Z,20.69
2022-10-07T07:40:15.975Z,20.69
2022-10-07T07:41:15.990Z,20.69
2022-10-07T07:42:15.947Z,20.69
2022-10-07T07:43:15.943Z,20.70
2022-10-07T07:44:16.014Z,20.69
2022-10-07T07:45:15.912Z,20.69
2022-10-07T07:46:15.943Z,20.70
2022-10-07T07:47:15.890Z,20.70
2022-10-07T07:48:15.878Z,20.69
2022-10-07T07:49:15.905Z,20.70
2022-10-07T07:50:15.858Z,20.70
2022-10-07T07:51:15.845Z,20.70
2022-10-07T07:52:15.835Z,20.72
2022-10-07T07:53:15.824Z,20.70
2022-10-07T07:54:15.814Z,20.72
2022-10-07T07:55:15.827Z,20.72
2022-10-07T07:56:15.791Z,20.72
2022-10-07T07:57:15.802Z,20.70
2022-10-07T07:58:15.768Z,20.72
2022-10-07T07:59:15.758Z,20.70
2022-10-07T08:00:15.777Z,20.74
2022-10-07T08:01:15.801Z,20.74
2022-10-07T08:02:15.792Z,20.74
2022-10-07T08:03:15.718Z,20.74
2022-10-07T08:04:15.704Z,20.74
2022-10-07T08:05:20.122Z,20.74
2022-10-07T08:06:16.680Z,20.75
2022-10-07T08:07:15.668Z,20.75
2022-10-07T08:08:15.658Z,20.74
2022-10-07T08:09:15.650Z,20.77
2022-10-07T08:10:15.664Z,20.75
2022-10-07T08:11:15.630Z,20.75
2022-10-07T08:12:15.614Z,20.74
2022-10-07T08:13:15.625Z,20.75
2022-10-07T08:14:15.594Z,20.77
2022-10-07T08:15:15.607Z,20.75
2022-10-07T08:16:15.678Z,20.75
2022-10-07T08:17:15.559Z,20.75
2022-10-07T08:18:15.553Z,20.75
2022-10-07T08:19:15.550Z,20.77
2022-10-07T08:20:15.556Z,20.77
2022-10-07T08:21:15.512Z,20.75
2022-10-07T08:22:15.501Z,20.77
2022-10-07T08:23:15.489Z,20.77
2022-10-07T08:24:15.490Z,20.77
2022-10-07T08:25:15.494Z,20.77
2022-10-07T08:26:15.461Z,20.78
2022-10-07T08:27:15.453Z,20.77
2022-10-07T08:28:15.538Z,20.75
2022-10-07T08:29:15.453Z,20.77
2022-10-07T08:30:15.459Z,20.78
2022-10-07T08:31:15.485Z,20.78
2022-10-07T08:32:15.397Z,20.77
2022-10-07T08:33:15.381Z,20.77
2022-10-07T08:34:15.372Z,20.78
2022-10-07T08:35:15.362Z,20.77
2022-10-07T08:36:15.377Z,20.78
2022-10-07T08:37:15.339Z,20.77
2022-10-07T08:38:15.327Z,20.78
2022-10-07T08:39:15.316Z,20.77
2022-10-07T08:40:15.305Z,20.78
2022-10-07T08:41:15.321Z,20.78
2022-10-07T08:42:15.316Z,20.77
2022-10-07T08:43:15.272Z,20.80
2022-10-07T08:44:16.883Z,20.80
2022-10-07T08:45:15.453Z,20.80
2022-10-07T08:46:15.384Z,20.78
2022-10-07T08:47:15.392Z,20.80
2022-10-07T08:48:15.259Z,20.80
2022-10-07T08:49:15.219Z,20.81
2022-10-07T08:50:19.236Z,20.80
2022-10-07T08:51:15.191Z,20.80
2022-10-07T08:52:15.211Z,20.80
2022-10-07T08:53:15.174Z,20.80
2022-10-07T08:54:15.161Z,20.80
2022-10-07T08:55:15.147Z,20.80
2022-10-07T08:56:15.145Z,20.80
2022-10-07T08:57:15.153Z,20.80
2022-10-07T08:58:15.115Z,20.80
2022-10-07T08:59:15.101Z,20.80
2022-10-07T09:00:15.091Z,20.80
2022-10-07T09:01:15.170Z,20.80
2022-10-07T09:02:15.136Z,20.80
2022-10-07T09:03:15.059Z,20.81
2022-10-07T09:04:15.050Z,20.81
2022-10-07T09:05:15.035Z,20.82
2022-10-07T09:06:15.027Z,20.80
2022-10-07T09:07:15.014Z,20.81
2022-10-07T09:08:15.031Z,20.82
2022-10-07T09:09:15.005Z,20.82
2022-10-07T09:10:14.980Z,20.82
2022-10-07T09:11:14.990Z,20.82
2022-10-07T09:12:14.959Z,20.81
2022-10-07T09:13:14.974Z,20.82
2022-10-07T09:14:14.942Z,20.82
2022-10-07T09:15:14.928Z,20.81
2022-10-07T09:16:14.933Z,20.84
2022-10-07T09:17:14.956Z,20.82
2022-10-07T09:18:14.919Z,20.84
2022-10-07T09:19:14.881Z,20.82
2022-10-07T09:20:14.875Z,20.84
2022-10-07T09:21:14.859Z,20.84
2022-10-07T09:22:14.849Z,20.84
2022-10-07T09:23:14.867Z,20.84
2022-10-07T09:24:14.826Z,20.82
2022-10-07T09:25:14.815Z,20.82
2022-10-07T09:26:14.810Z,20.84
2022-10-07T09:27:14.794Z,20.84
2022-10-07T09:28:14.859Z,20.84
2022-10-07T09:29:14.773Z,20.85
2022-10-07T09:30:14.764Z,20.84
2022-10-07T09:31:14.843Z,20.84
2022-10-07T09:32:14.738Z,20.85
2022-10-07T09:33:14.759Z,20.84
2022-10-07T09:34:14.746Z,20.82
2022-10-07T09:35:14.704Z,20.85
2022-10-07T09:36:14.694Z,20.85
2022-10-07T09:37:14.683Z,20.84
2022-10-07T09:38:14.673Z,20.84
2022-10-07T09:39:14.688Z,20.85
2022-10-07T09:40:14.653Z,20.85
2022-10-07T09:41:14.640Z,20.88
2022-10-07T09:42:14.633Z,20.87
2022-10-07T09:43:14.617Z,20.87
2022-10-07T09:44:14.633Z,20.88
2022-10-07T09:45:14.595Z,20.87
2022-10-07T09:46:14.608Z,20.88
2022-10-07T09:47:14.574Z,20.88
2022-10-07T09:48:14.563Z,20.87
2022-10-07T09:49:14.601Z,20.87
2022-10-07T09:50:14.542Z,20.88
2022-10-07T09:51:14.527Z,20.88
2022-10-07T09:52:14.520Z,20.87
2022-10-07T09:53:14.506Z,20.87
2022-10-07T09:54:14.540Z,20.87
2022-10-07T09:55:14.484Z,20.87
2022-10-07T09:56:14.477Z,20.88
2022-10-07T09:57:18.789Z,20.85
2022-10-07T09:58:14.451Z,20.87
2022-10-07T09:59:14.439Z,20.87
2022-10-07T10:00:14.463Z,20.87
2022-10-07T10:01:14.418Z,20.87
2022-10-07T10:02:14.483Z,20.87
2022-10-07T10:03:14.460Z,20.87
2022-10-07T10:04:14.386Z,20.87
2022-10-07T10:05:14.466Z,20.87
2022-10-07T10:06:14.364Z,20.85
2022-10-07T10:07:14.350Z,20.87
2022-10-07T10:08:14.343Z,20.88
2022-10-07T10:09:18.160Z,20.85
2022-10-07T10:10:15.344Z,20.87
2022-10-07T10:11:14.308Z,20.87
2022-10-07T10:12:14.309Z,20.87
2022-10-07T10:13:14.287Z,20.88
2022-10-07T10:14:14.278Z,20.87
2022-10-07T10:15:14.289Z,20.88
2022-10-07T10:16:14.369Z,20.87
2022-10-07T10:17:14.241Z,20.85
2022-10-07T10:18:14.233Z,20.87
2022-10-07T10:19:14.219Z,20.87
2022-10-07T10:20:14.236Z,20.87
2022-10-07T10:21:14.280Z,20.85
2022-10-07T10:22:14.191Z,20.85
2022-10-07T10:23:14.174Z,20.85
2022-10-07T10:24:14.165Z,20.87
2022-10-07T10:25:14.178Z,20.85
2022-10-07T10:26:14.141Z,20.85
2022-10-07T10:27:14.130Z,20.87
2022-10-07T10:28:14.151Z,20.85
2022-10-07T10:29:14.107Z,20.85
2022-10-07T10:30:14.141Z,20.85
2022-10-07T10:31:14.150Z,20.85
2022-10-07T10:32:14.074Z,20.85
2022-10-07T10:33:14.063Z,20.85
2022-10-07T10:34:14.051Z,20.85
2022-10-07T10:35:14.042Z,20.87
2022-10-07T10:36:14.057Z,20.85
2022-10-07T10:37:14.728Z,20.87
2022-10-07T10:38:14.008Z,20.85
2022-10-07T10:39:14.005Z,20.85
2022-10-07T10:40:13.987Z,20.85
2022-10-07T10:41:14.002Z,20.85
2022-10-07T10:42:13.965Z,20.85
2022-10-07T10:43:13.956Z,20.85
2022-10-07T10:44:13.942Z,20.85
2022-10-07T10:45:13.936Z,20.85
2022-10-07T10:46:13.992Z,20.85
2022-10-07T10:47:13.913Z,20.85
2022-10-07T10:48:13.900Z,20.84
2022-10-07T10:49:13.891Z,20.85
2022-10-07T10:50:13.874Z,20.85
2022-10-07T10:51:13.893Z,20.85
2022-10-07T10:52:13.921Z,20.85
2022-10-07T10:53:13.865Z,20.85
2022-10-07T10:54:13.831Z,20.85
2022-10-07T10:55:13.822Z,20.85
2022-10-07T10:56:13.849Z,20.85
2022-10-07T10:57:13.799Z,20.85
2022-10-07T10:58:13.788Z,20.84
2022-10-07T10:59:13.776Z,20.85
2022-10-07T11:00:13.780Z,20.85
2022-10-07T11:01:13.757Z,20.84
2022-10-07T11:02:13.819Z,20.82
2022-10-07T11:03:13.809Z,20.84
2022-10-07T11:04:13.722Z,20.85
2022-10-07T11:05:13.711Z,20.84
2022-10-07T11:06:15.721Z,20.84
2022-10-07T11:07:13.717Z,20.82
2022-10-07T11:08:13.677Z,20.84
2022-10-07T11:09:13.691Z,20.84
2022-10-07T11:10:13.657Z,20.84
2022-10-07T11:11:13.647Z,20.82
2022-10-07T11:12:13.659Z,20.84
2022-10-07T11:13:13.625Z,20.84
2022-10-07T11:14:13.611Z,20.84
2022-10-07T11:15:13.604Z,20.84
2022-10-07T11:16:13.656Z,20.84
2022-10-07T11:17:13.606Z,20.85
2022-10-07T11:18:13.565Z,20.84
2022-10-07T11:19:13.557Z,20.84
2022-10-07T11:20:13.543Z,20.84
2022-10-07T11:21:13.545Z,20.84
2022-10-07T11:22:13.560Z,20.85
2022-10-07T11:23:13.510Z,20.84
2022-10-07T11:24:13.503Z,20.84
2022-10-07T11:25:13.514Z,20.84
2022-10-07T11:26:13.477Z,20.84
2022-10-07T11:27:13.468Z,20.85
2022-10-07T11:28:13.520Z,20.84
2022-10-07T11:29:13.444Z,20.82
2022-10-07T11:30:13.433Z,20.84
2022-10-07T11:31:13.492Z,20.85
2022-10-07T11:32:13.410Z,20.84
2022-10-07T11:33:13.427Z,20.84
2022-10-07T11:34:13.388Z,20.85
2022-10-07T11:35:13.377Z,20.84
2022-10-07T11:36:13.370Z,20.84
2022-10-07T11:37:13.355Z,20.84
2022-10-07T11:38:13.369Z,20.84
2022-10-07T11:39:13.336Z,20.84
2022-10-07T11:40:13.321Z,20.82
2022-10-07T11:41:13.356Z,20.85
2022-10-07T11:42:13.300Z,20.84
2022-10-07T11:43:13.314Z,20.84
2022-10-07T11:44:13.277Z,20.85
2022-10-07T11:45:13.273Z,20.85
2022-10-07T11:46:13.292Z,20.85
2022-10-07T11:47:13.249Z,20.85
2022-10-07T11:48:13.261Z,20.85
2022-10-07T11:49:13.222Z,20.84
2022-10-07T11:50:13.211Z,20.84
2022-10-07T11:51:13.202Z,20.84
2022-10-07T11:52:13.190Z,20.84
2022-10-07T11:53:13.207Z,20.84
2022-10-07T11:54:13.169Z,20.82
2022-10-07T11:55:13.155Z,20.82
2022-10-07T11:56:13.147Z,20.84
2022-10-07T11:57:13.159Z,20.82
2022-10-07T11:58:13.149Z,20.84
2022-10-07T11:59:13.114Z,20.82
2022-10-07T12:00:13.101Z,20.84
2022-10-07T12:01:13.091Z,20.84
2022-10-07T12:02:15.722Z,20.84
2022-10-07T12:03:13.115Z,20.84
2022-10-07T12:04:13.059Z,20.84
2022-10-07T12:05:13.052Z,20.82
2022-10-07T12:06:13.035Z,20.82
2022-10-07T12:07:13.066Z,20.82
2022-10-07T12:08:13.015Z,20.82
2022-10-07T12:09:13.002Z,20.84
2022-10-07T12:10:12.990Z,20.82
2022-10-07T12:11:13.022Z,20.84
2022-10-07T12:12:12.971Z,20.81
2022-10-07T12:13:13.101Z,20.82
2022-10-07T12:14:12.948Z,20.82
2022-10-07T12:15:12.935Z,20.82
2022-10-07T12:16:12.965Z,20.82
2022-10-07T12:17:12.914Z,20.81
2022-10-07T12:18:12.930Z,20.81
2022-10-07T12:19:12.900Z,20.81
2022-10-07T12:20:12.885Z,20.81
2022-10-07T12:21:12.868Z,20.80
2022-10-07T12:22:12.859Z,20.81
2022-10-07T12:23:12.888Z,20.82
2022-10-07T12:24:12.838Z,20.81
2022-10-07T12:25:12.828Z,20.82
2022-10-07T12:26:12.816Z,20.81
2022-10-07T12:27:12.802Z,20.81
2022-10-07T12:28:12.840Z,20.81
2022-10-07T12:29:12.885Z,20.80
2022-10-07T12:30:12.775Z,20.81
2022-10-07T12:31:12.795Z,20.81
2022-10-07T12:32:12.753Z,20.81
2022-10-07T12:33:12.739Z,20.81
2022-10-07T12:34:12.757Z,20.81
2022-10-07T12:35:12.716Z,20.81
2022-10-07T12:36:12.709Z,20.82
2022-10-07T12:37:12.696Z,20.81
2022-10-07T12:38:12.686Z,20.80
2022-10-07T12:39:12.700Z,20.80
2022-10-07T12:40:12.666Z,20.80
2022-10-07T12:41:12.652Z,20.81
2022-10-07T12:42:12.642Z,20.80
2022-10-07T12:43:12.630Z,20.80
2022-10-07T12:44:12.648Z,20.81
2022-10-07T12:45:12.694Z,20.80
2022-10-07T12:46:12.672Z,20.80
2022-10-07T12:47:16.382Z,20.81
2022-10-07T12:48:13.576Z,20.80
2022-10-07T12:49:12.593Z,20.78
2022-10-07T12:50:12.557Z,20.80
2022-10-07T12:51:12.545Z,20.78
2022-10-07T12:52:12.534Z,20.78